»·PEaware :: DAL2419 KASE-KBZN

DAL2419 :: KASE-KBZN

FLIGHT INFORMATION

Flight Status: Arrived
Operator:
Delta Air Lines
More flights by this operator :: More flights under this callsign
Pilot: Oliver L. (19934)
Aircraft: EMBRAER EMB-170/175
(E170)
More flights by this aircraft type
Origin: KASE Aspen-Pitkin Co/Sardy
United States
Destination: KBZN Gallatin
United States
More flights between these airports :: More routes between these airports
Route: +LINDZ9 EKR OCS JAPER BZN
File this flight plan on PilotEdge
Remarks:
Altitude:
(Current/Filed)
32,000ft
Speed:
(Current/Filed)
400kts
Departed: 18-Oct-19 02:18 PM
Arrived: 18-Oct-19 03:31 PM
Distance/Time
Traveled:
437nm/1:12
Distance/Time
To Go:
Arrived

Flight Plot

Page will automatically refresh every two minutes.

Flight plan parsing failed; only flown route is shown


Map Options




Map Legend


Flown Route
Filed Route
Departure Airport
Arrival Airport
Navaid (VOR, NDB)
Fix

Horizontal Profiles

Position Reports

Time Latitude Longitude Heading Altitude Ground
Speed
18-Oct-19 14:01 39.219286 -106.864699 75 7840ft 0kts
18-Oct-19 14:02 39.219286 -106.864699 75 7840ft 0kts
18-Oct-19 14:03 39.219286 -106.864699 75 7840ft 0kts
18-Oct-19 14:04 39.219286 -106.864699 75 7840ft 0kts
18-Oct-19 14:05 39.219286 -106.864699 75 7840ft 0kts
18-Oct-19 14:06 39.219286 -106.864699 75 7840ft 0kts
18-Oct-19 14:07 39.219286 -106.864699 75 7840ft 0kts
18-Oct-19 14:08 39.219287 -106.864694 75 7840ft 0kts
18-Oct-19 14:09 39.219154 -106.865360 75 7840ft 2kts
18-Oct-19 14:10 39.219295 -106.865850 161 7840ft 0kts
18-Oct-19 14:11 39.219295 -106.865850 161 7840ft 0kts
18-Oct-19 14:12 39.219295 -106.865850 161 7840ft 0kts
18-Oct-19 14:13 39.218027 -106.865250 159 7840ft 17kts
18-Oct-19 14:14 39.212508 -106.862635 163 7840ft 9kts
18-Oct-19 14:15 39.212309 -106.862594 177 7840ft 0kts
18-Oct-19 14:16 39.212082 -106.863611 339 7840ft 17kts
18-Oct-19 14:17 39.245433 -106.879340 343 8321ft 191kts
18-Oct-19 14:18 39.292138 -106.912044 289 10454ft 224kts
18-Oct-19 14:19 39.309421 -106.992245 285 11944ft 239kts
18-Oct-19 14:20 39.331918 -107.078454 309 12734ft 258kts
18-Oct-19 14:21 39.379447 -107.152281 283 14120ft 296kts
18-Oct-19 14:22 39.368923 -107.266055 257 15977ft 346kts
18-Oct-19 14:23 39.364736 -107.392767 300 18076ft 373kts
18-Oct-19 14:24 39.457342 -107.449397 348 20182ft 395kts
18-Oct-19 14:25 39.562583 -107.491703 330 22187ft 400kts
18-Oct-19 14:26 39.658327 -107.567900 323 24174ft 406kts
18-Oct-19 14:27 39.751789 -107.650064 322 26130ft 407kts
18-Oct-19 14:28 39.844957 -107.731889 321 28126ft 399kts
18-Oct-19 14:29 39.935564 -107.810761 321 30092ft 383kts
18-Oct-19 14:30 40.022515 -107.886153 320 31659ft 369kts
18-Oct-19 14:31 40.112491 -107.958764 325 32035ft 403kts
18-Oct-19 14:32 40.217694 -108.031005 326 32033ft 449kts
18-Oct-19 14:33 40.328144 -108.107018 326 32018ft 440kts
18-Oct-19 14:34 40.436343 -108.183200 326 32018ft 443kts
18-Oct-19 14:35 40.545051 -108.260270 326 32016ft 443kts
18-Oct-19 14:36 40.653438 -108.337315 326 32006ft 443kts
18-Oct-19 14:37 40.762032 -108.414763 326 31997ft 443kts
18-Oct-19 14:38 40.870545 -108.492433 326 31987ft 442kts
18-Oct-19 14:39 40.978430 -108.569956 326 31986ft 442kts
18-Oct-19 14:40 41.087703 -108.648839 326 31986ft 448kts
18-Oct-19 14:41 41.193799 -108.725899 325 31995ft 449kts
18-Oct-19 14:42 41.303594 -108.805512 325 31995ft 449kts
18-Oct-19 14:43 41.413014 -108.885347 325 31995ft 449kts
18-Oct-19 14:44 41.522420 -108.965504 325 31993ft 449kts
18-Oct-19 14:45 41.633936 -109.040461 333 31993ft 452kts
18-Oct-19 14:46 41.753940 -109.092144 336 31992ft 453kts
18-Oct-19 14:47 41.873551 -109.143597 334 31991ft 449kts
18-Oct-19 14:48 41.991380 -109.197295 334 31993ft 446kts
18-Oct-19 14:49 42.108601 -109.251211 334 32004ft 446kts
18-Oct-19 14:50 42.225850 -109.304505 334 32094ft 446kts
18-Oct-19 14:51 42.343384 -109.358347 334 32079ft 445kts
18-Oct-19 14:52 42.460006 -109.412422 334 32043ft 444kts
18-Oct-19 14:53 42.577139 -109.467007 334 32014ft 444kts
18-Oct-19 14:54 42.693748 -109.521540 334 32018ft 447kts
18-Oct-19 14:55 42.811917 -109.577073 334 32012ft 451kts
18-Oct-19 14:56 42.930170 -109.632727 334 32012ft 453kts
18-Oct-19 14:57 43.049880 -109.690133 333 32024ft 461kts
18-Oct-19 14:59 43.169961 -109.747837 334 32022ft 461kts
18-Oct-19 15:00 43.290825 -109.804745 334 32022ft 461kts
18-Oct-19 15:01 43.411632 -109.862460 334 31871ft 464kts
18-Oct-19 15:02 43.530310 -109.919455 334 30852ft 447kts
18-Oct-19 15:03 43.646906 -109.975824 334 29848ft 440kts
18-Oct-19 15:04 43.761136 -110.031269 334 28845ft 433kts
18-Oct-19 15:05 43.873844 -110.086183 334 27841ft 428kts
18-Oct-19 15:06 43.985301 -110.140693 334 26835ft 422kts
18-Oct-19 15:07 44.095220 -110.194663 334 25823ft 416kts
18-Oct-19 15:08 44.202907 -110.247108 334 24807ft 410kts
18-Oct-19 15:09 44.309864 -110.299524 334 23945ft 401kts
18-Oct-19 15:10 44.415717 -110.352138 334 23936ft 405kts
18-Oct-19 15:11 44.521680 -110.405028 334 23935ft 405kts
18-Oct-19 15:12 44.627892 -110.458181 334 23934ft 405kts
18-Oct-19 15:13 44.733896 -110.511413 334 23106ft 399kts
18-Oct-19 15:14 44.834469 -110.561031 335 21242ft 370kts
18-Oct-19 15:15 44.929964 -110.608205 335 19400ft 359kts
18-Oct-19 15:16 45.022548 -110.654058 334 17491ft 346kts
18-Oct-19 15:17 45.110334 -110.698647 333 15947ft 319kts
18-Oct-19 15:17 45.179892 -110.733745 334 15933ft 316kts
18-Oct-19 15:19 45.275305 -110.781613 334 16050ft 314kts
18-Oct-19 15:19 45.343892 -110.816137 334 16025ft 314kts
18-Oct-19 15:20 45.430160 -110.808420 21 14534ft 340kts
18-Oct-19 15:21 45.507137 -110.749901 21 12647ft 292kts
18-Oct-19 15:23 45.585649 -110.747190 311 11286ft 253kts
18-Oct-19 15:23 45.626428 -110.801254 311 11002ft 219kts
18-Oct-19 15:24 45.668677 -110.859459 297 10785ft 214kts
18-Oct-19 15:25 45.688228 -110.937335 283 9320ft 199kts
18-Oct-19 15:26 45.701669 -111.000216 282 8097ft 155kts
18-Oct-19 15:27 45.719291 -111.057249 294 6197ft 158kts
18-Oct-19 15:28 45.744642 -111.105042 306 5093ft 138kts
18-Oct-19 15:29 45.771998 -111.144035 308 4479ft 128kts
18-Oct-19 15:30 45.778902 -111.155902 225 4477ft 0kts
18-Oct-19 15:31 45.778592 -111.156343 225 4477ft 5kts
18-Oct-19 15:32 45.777691 -111.159211 283 4477ft 0kts

Navigation Log

Ident Type
Flight plan parsing failed, navigation log unavailable